sensor_id;sensor_type;location;lat;lon;timestamp;temperature;humidity
73322;DHT22;61549;37.044;22.128;2023-02-17T00:02:08;14.00;46.50
73322;DHT22;61549;37.044;22.128;2023-02-17T00:04:33;13.90;46.90
73322;DHT22;61549;37.044;22.128;2023-02-17T00:06:59;13.90;46.90
73322;DHT22;61549;37.044;22.128;2023-02-17T00:09:26;13.90;46.70
73322;DHT22;61549;37.044;22.128;2023-02-17T00:11:52;13.90;46.80
73322;DHT22;61549;37.044;22.128;2023-02-17T00:14:18;13.80;46.60
73322;DHT22;61549;37.044;22.128;2023-02-17T00:16:44;13.90;46.90
73322;DHT22;61549;37.044;22.128;2023-02-17T00:19:12;13.90;46.90
73322;DHT22;61549;37.044;22.128;2023-02-17T00:21:54;13.80;46.90
73322;DHT22;61549;37.044;22.128;2023-02-17T00:24:21;13.70;47.10
73322;DHT22;61549;37.044;22.128;2023-02-17T00:26:49;13.70;47.10
73322;DHT22;61549;37.044;22.128;2023-02-17T00:29:15;13.70;47.40
73322;DHT22;61549;37.044;22.128;2023-02-17T00:31:41;13.70;47.50
73322;DHT22;61549;37.044;22.128;2023-02-17T00:34:07;13.70;47.60
73322;DHT22;61549;37.044;22.128;2023-02-17T00:36:35;13.60;47.40
73322;DHT22;61549;37.044;22.128;2023-02-17T00:39:01;13.60;47.70
73322;DHT22;61549;37.044;22.128;2023-02-17T00:41:28;13.50;47.90
73322;DHT22;61549;37.044;22.128;2023-02-17T00:43:54;13.40;48.00
73322;DHT22;61549;37.044;22.128;2023-02-17T00:46:20;13.40;47.60
73322;DHT22;61549;37.044;22.128;2023-02-17T00:48:47;13.40;48.20
73322;DHT22;61549;37.044;22.128;2023-02-17T00:51:15;13.40;47.70
73322;DHT22;61549;37.044;22.128;2023-02-17T00:53:41;13.30;47.30
73322;DHT22;61549;37.044;22.128;2023-02-17T00:56:08;13.20;47.40
73322;DHT22;61549;37.044;22.128;2023-02-17T00:58:34;13.10;47.20
73322;DHT22;61549;37.044;22.128;2023-02-17T01:01:01;13.10;46.80
73322;DHT22;61549;37.044;22.128;2023-02-17T01:03:27;13.10;46.80
73322;DHT22;61549;37.044;22.128;2023-02-17T01:05:53;13.20;46.10
73322;DHT22;61549;37.044;22.128;2023-02-17T01:08:20;13.20;46.00
73322;DHT22;61549;37.044;22.128;2023-02-17T01:10:47;13.20;45.80
73322;DHT22;61549;37.044;22.128;2023-02-17T01:13:18;13.30;45.60
73322;DHT22;61549;37.044;22.128;2023-02-17T01:15:45;13.30;45.10
73322;DHT22;61549;37.044;22.128;2023-02-17T01:18:12;13.30;44.90
73322;DHT22;61549;37.044;22.128;2023-02-17T01:20:39;13.40;44.70
73322;DHT22;61549;37.044;22.128;2023-02-17T01:23:07;13.50;44.50
73322;DHT22;61549;37.044;22.128;2023-02-17T01:25:41;13.50;44.30
73322;DHT22;61549;37.044;22.128;2023-02-17T01:28:10;13.60;44.30
73322;DHT22;61549;37.044;22.128;2023-02-17T01:30:36;13.60;44.00
73322;DHT22;61549;37.044;22.128;2023-02-17T01:33:08;13.60;44.40
73322;DHT22;61549;37.044;22.128;2023-02-17T01:35:34;13.50;44.50
73322;DHT22;61549;37.044;22.128;2023-02-17T01:38:00;13.40;44.30
73322;DHT22;61549;37.044;22.128;2023-02-17T01:40:26;13.50;44.70
73322;DHT22;61549;37.044;22.128;2023-02-17T01:42:53;13.60;44.90
73322;DHT22;61549;37.044;22.128;2023-02-17T01:50:28;13.40;45.60
73322;DHT22;61549;37.044;22.128;2023-02-17T01:52:57;13.40;45.30
73322;DHT22;61549;37.044;22.128;2023-02-17T01:55:25;13.30;45.10
73322;DHT22;61549;37.044;22.128;2023-02-17T01:57:54;13.20;45.40
73322;DHT22;61549;37.044;22.128;2023-02-17T02:00:20;13.10;45.60
73322;DHT22;61549;37.044;22.128;2023-02-17T02:02:48;13.10;45.70
73322;DHT22;61549;37.044;22.128;2023-02-17T02:05:17;13.00;46.00
73322;DHT22;61549;37.044;22.128;2023-02-17T02:07:43;13.10;45.90
73322;DHT22;61549;37.044;22.128;2023-02-17T02:10:12;13.10;46.10
73322;DHT22;61549;37.044;22.128;2023-02-17T02:12:40;13.00;46.20
73322;DHT22;61549;37.044;22.128;2023-02-17T02:15:19;13.00;45.90
73322;DHT22;61549;37.044;22.128;2023-02-17T02:26:03;12.90;46.00
73322;DHT22;61549;37.044;22.128;2023-02-17T02:34:24;12.80;45.90
73322;DHT22;61549;37.044;22.128;2023-02-17T02:36:59;12.70;46.00
73322;DHT22;61549;37.044;22.128;2023-02-17T02:39:36;12.80;45.50
73322;DHT22;61549;37.044;22.128;2023-02-17T02:42:16;12.70;44.70
73322;DHT22;61549;37.044;22.128;2023-02-17T02:44:43;12.80;45.10
73322;DHT22;61549;37.044;22.128;2023-02-17T02:47:47;12.70;45.80
73322;DHT22;61549;37.044;22.128;2023-02-17T02:50:18;12.70;45.90
73322;DHT22;61549;37.044;22.128;2023-02-17T02:58:00;12.60;44.90
73322;DHT22;61549;37.044;22.128;2023-02-17T03:06:07;12.50;45.40
73322;DHT22;61549;37.044;22.128;2023-02-17T03:08:45;12.50;46.00
73322;DHT22;61549;37.044;22.128;2023-02-17T03:11:12;12.40;46.60
73322;DHT22;61549;37.044;22.128;2023-02-17T03:13:38;12.30;46.10
73322;DHT22;61549;37.044;22.128;2023-02-17T03:16:07;12.30;45.80
73322;DHT22;61549;37.044;22.128;2023-02-17T03:18:34;12.30;45.90
73322;DHT22;61549;37.044;22.128;2023-02-17T03:21:05;12.30;46.40
73322;DHT22;61549;37.044;22.128;2023-02-17T03:23:35;12.30;47.10
73322;DHT22;61549;37.044;22.128;2023-02-17T03:26:01;12.40;46.80
73322;DHT22;61549;37.044;22.128;2023-02-17T03:28:28;12.30;46.90
73322;DHT22;61549;37.044;22.128;2023-02-17T03:30:54;12.20;46.00
73322;DHT22;61549;37.044;22.128;2023-02-17T03:33:20;12.10;45.80
73322;DHT22;61549;37.044;22.128;2023-02-17T03:35:45;12.20;46.00
73322;DHT22;61549;37.044;22.128;2023-02-17T03:38:11;12.30;46.00
73322;DHT22;61549;37.044;22.128;2023-02-17T03:40:37;12.20;45.90
73322;DHT22;61549;37.044;22.128;2023-02-17T03:43:03;12.30;45.70
73322;DHT22;61549;37.044;22.128;2023-02-17T03:45:29;12.30;45.10
73322;DHT22;61549;37.044;22.128;2023-02-17T03:47:55;12.20;45.10
73322;DHT22;61549;37.044;22.128;2023-02-17T03:50:21;12.20;45.50
73322;DHT22;61549;37.044;22.128;2023-02-17T03:52:46;12.20;45.40
73322;DHT22;61549;37.044;22.128;2023-02-17T03:55:13;12.30;45.00
73322;DHT22;61549;37.044;22.128;2023-02-17T03:57:39;12.30;44.70
73322;DHT22;61549;37.044;22.128;2023-02-17T04:00:06;12.40;45.00
73322;DHT22;61549;37.044;22.128;2023-02-17T04:02:32;12.40;45.10
73322;DHT22;61549;37.044;22.128;2023-02-17T04:04:58;12.30;44.30
73322;DHT22;61549;37.044;22.128;2023-02-17T04:07:24;12.30;44.60
73322;DHT22;61549;37.044;22.128;2023-02-17T04:09:50;12.20;45.00
73322;DHT22;61549;37.044;22.128;2023-02-17T04:12:15;12.20;45.30
73322;DHT22;61549;37.044;22.128;2023-02-17T04:14:41;12.30;45.10
73322;DHT22;61549;37.044;22.128;2023-02-17T04:17:07;12.30;44.40
73322;DHT22;61549;37.044;22.128;2023-02-17T04:19:33;12.30;43.90
73322;DHT22;61549;37.044;22.128;2023-02-17T04:21:59;12.30;44.30
73322;DHT22;61549;37.044;22.128;2023-02-17T04:24:24;12.30;44.40
73322;DHT22;61549;37.044;22.128;2023-02-17T04:26:50;12.30;44.60
73322;DHT22;61549;37.044;22.128;2023-02-17T04:29:16;12.30;44.40
73322;DHT22;61549;37.044;22.128;2023-02-17T04:31:42;12.20;44.40
73322;DHT22;61549;37.044;22.128;2023-02-17T04:34:08;12.30;44.50
73322;DHT22;61549;37.044;22.128;2023-02-17T04:36:34;12.20;44.00
73322;DHT22;61549;37.044;22.128;2023-02-17T04:38:59;12.20;43.90
73322;DHT22;61549;37.044;22.128;2023-02-17T04:41:25;12.20;44.20
73322;DHT22;61549;37.044;22.128;2023-02-17T04:43:51;12.20;44.30
73322;DHT22;61549;37.044;22.128;2023-02-17T04:46:17;12.20;44.50
73322;DHT22;61549;37.044;22.128;2023-02-17T04:48:43;12.10;43.70
73322;DHT22;61549;37.044;22.128;2023-02-17T04:51:09;12.20;43.90
73322;DHT22;61549;37.044;22.128;2023-02-17T04:53:34;12.10;43.70
73322;DHT22;61549;37.044;22.128;2023-02-17T04:56:00;12.20;44.10
73322;DHT22;61549;37.044;22.128;2023-02-17T04:58:26;12.10;43.20
73322;DHT22;61549;37.044;22.128;2023-02-17T05:00:52;12.10;43.20
73322;DHT22;61549;37.044;22.128;2023-02-17T05:03:19;12.10;43.10
73322;DHT22;61549;37.044;22.128;2023-02-17T05:05:45;12.10;43.30
73322;DHT22;61549;37.044;22.128;2023-02-17T05:08:11;12.20;42.50
73322;DHT22;61549;37.044;22.128;2023-02-17T05:10:37;12.20;42.60
73322;DHT22;61549;37.044;22.128;2023-02-17T05:13:03;12.20;43.70
73322;DHT22;61549;37.044;22.128;2023-02-17T05:15:29;12.30;42.60
73322;DHT22;61549;37.044;22.128;2023-02-17T05:17:55;12.30;42.50
73322;DHT22;61549;37.044;22.128;2023-02-17T05:20:21;12.40;43.30
73322;DHT22;61549;37.044;22.128;2023-02-17T05:22:47;12.40;43.90
73322;DHT22;61549;37.044;22.128;2023-02-17T05:25:13;12.30;43.90
73322;DHT22;61549;37.044;22.128;2023-02-17T05:27:39;12.30;43.80
73322;DHT22;61549;37.044;22.128;2023-02-17T05:30:05;12.30;43.60
73322;DHT22;61549;37.044;22.128;2023-02-17T05:32:31;12.30;43.10
73322;DHT22;61549;37.044;22.128;2023-02-17T05:34:57;12.30;42.70
73322;DHT22;61549;37.044;22.128;2023-02-17T05:37:23;12.20;43.00
73322;DHT22;61549;37.044;22.128;2023-02-17T05:39:52;12.30;43.30
73322;DHT22;61549;37.044;22.128;2023-02-17T05:42:17;12.20;43.40
73322;DHT22;61549;37.044;22.128;2023-02-17T05:44:43;12.30;43.80
73322;DHT22;61549;37.044;22.128;2023-02-17T05:47:09;12.20;43.40
73322;DHT22;61549;37.044;22.128;2023-02-17T05:49:35;12.10;43.50
73322;DHT22;61549;37.044;22.128;2023-02-17T05:52:01;12.10;43.80
73322;DHT22;61549;37.044;22.128;2023-02-17T05:54:27;12.20;43.60
73322;DHT22;61549;37.044;22.128;2023-02-17T05:56:53;12.30;43.30
73322;DHT22;61549;37.044;22.128;2023-02-17T05:59:20;12.30;43.20
73322;DHT22;61549;37.044;22.128;2023-02-17T06:01:46;12.30;44.00
73322;DHT22;61549;37.044;22.128;2023-02-17T06:04:12;12.30;43.40
73322;DHT22;61549;37.044;22.128;2023-02-17T06:06:37;12.30;43.70
73322;DHT22;61549;37.044;22.128;2023-02-17T06:09:03;12.30;43.50
73322;DHT22;61549;37.044;22.128;2023-02-17T06:11:29;12.30;42.60
73322;DHT22;61549;37.044;22.128;2023-02-17T06:13:55;12.30;43.00
73322;DHT22;61549;37.044;22.128;2023-02-17T06:16:21;12.40;42.80
73322;DHT22;61549;37.044;22.128;2023-02-17T06:18:47;12.40;42.40
73322;DHT22;61549;37.044;22.128;2023-02-17T06:21:13;12.50;42.50
73322;DHT22;61549;37.044;22.128;2023-02-17T06:23:39;12.60;42.40
73322;DHT22;61549;37.044;22.128;2023-02-17T06:26:05;12.90;42.50
73322;DHT22;61549;37.044;22.128;2023-02-17T06:28:31;13.10;42.20
73322;DHT22;61549;37.044;22.128;2023-02-17T06:30:57;13.40;41.60
73322;DHT22;61549;37.044;22.128;2023-02-17T06:33:22;13.70;41.10
73322;DHT22;61549;37.044;22.128;2023-02-17T06:35:50;14.00;40.60
73322;DHT22;61549;37.044;22.128;2023-02-17T06:38:17;14.30;40.60
73322;DHT22;61549;37.044;22.128;2023-02-17T06:40:43;14.60;39.40
73322;DHT22;61549;37.044;22.128;2023-02-17T06:43:09;14.80;39.30
73322;DHT22;61549;37.044;22.128;2023-02-17T06:45:36;15.00;39.70
73322;DHT22;61549;37.044;22.128;2023-02-17T06:48:02;15.20;38.80
73322;DHT22;61549;37.044;22.128;2023-02-17T06:50:28;15.40;39.00
73322;DHT22;61549;37.044;22.128;2023-02-17T06:52:54;15.60;38.60
73322;DHT22;61549;37.044;22.128;2023-02-17T06:55:20;15.80;38.40
73322;DHT22;61549;37.044;22.128;2023-02-17T06:57:46;16.10;38.40
73322;DHT22;61549;37.044;22.128;2023-02-17T07:00:12;16.30;38.30
73322;DHT22;61549;37.044;22.128;2023-02-17T07:02:38;16.50;37.90
73322;DHT22;61549;37.044;22.128;2023-02-17T07:05:06;16.70;38.70
73322;DHT22;61549;37.044;22.128;2023-02-17T07:07:32;16.90;38.00
73322;DHT22;61549;37.044;22.128;2023-02-17T07:09:58;17.00;38.20
73322;DHT22;61549;37.044;22.128;2023-02-17T07:12:24;17.20;37.50
73322;DHT22;61549;37.044;22.128;2023-02-17T07:14:51;17.40;36.30
73322;DHT22;61549;37.044;22.128;2023-02-17T07:17:17;17.60;36.70
73322;DHT22;61549;37.044;22.128;2023-02-17T07:19:43;17.60;35.70
73322;DHT22;61549;37.044;22.128;2023-02-17T07:22:09;17.70;38.60
73322;DHT22;61549;37.044;22.128;2023-02-17T07:24:35;17.90;39.40
73322;DHT22;61549;37.044;22.128;2023-02-17T07:27:00;17.90;38.50
73322;DHT22;61549;37.044;22.128;2023-02-17T07:29:28;18.10;36.70
73322;DHT22;61549;37.044;22.128;2023-02-17T07:31:54;18.20;36.30
73322;DHT22;61549;37.044;22.128;2023-02-17T07:34:20;18.30;35.70
73322;DHT22;61549;37.044;22.128;2023-02-17T07:36:46;18.50;36.60
73322;DHT22;61549;37.044;22.128;2023-02-17T07:39:12;18.60;35.90
73322;DHT22;61549;37.044;22.128;2023-02-17T07:41:38;18.80;36.60
73322;DHT22;61549;37.044;22.128;2023-02-17T07:44:04;18.90;37.10
73322;DHT22;61549;37.044;22.128;2023-02-17T07:46:30;19.10;37.00
73322;DHT22;61549;37.044;22.128;2023-02-17T07:48:56;19.20;37.10
73322;DHT22;61549;37.044;22.128;2023-02-17T07:51:23;19.30;35.80
73322;DHT22;61549;37.044;22.128;2023-02-17T07:53:50;19.40;36.10
73322;DHT22;61549;37.044;22.128;2023-02-17T07:56:18;19.50;35.40
73322;DHT22;61549;37.044;22.128;2023-02-17T07:58:46;19.50;35.20
73322;DHT22;61549;37.044;22.128;2023-02-17T08:01:18;19.60;35.90
73322;DHT22;61549;37.044;22.128;2023-02-17T08:03:45;19.60;36.80
73322;DHT22;61549;37.044;22.128;2023-02-17T08:06:13;19.60;37.40
73322;DHT22;61549;37.044;22.128;2023-02-17T08:08:40;19.50;38.40
73322;DHT22;61549;37.044;22.128;2023-02-17T08:11:25;19.70;37.60
73322;DHT22;61549;37.044;22.128;2023-02-17T08:14:10;19.80;38.00
73322;DHT22;61549;37.044;22.128;2023-02-17T08:16:35;19.90;38.90
73322;DHT22;61549;37.044;22.128;2023-02-17T08:19:01;19.90;38.90
73322;DHT22;61549;37.044;22.128;2023-02-17T08:21:28;20.10;38.40
73322;DHT22;61549;37.044;22.128;2023-02-17T08:23:54;20.20;38.90
73322;DHT22;61549;37.044;22.128;2023-02-17T08:26:20;20.10;38.30
73322;DHT22;61549;37.044;22.128;2023-02-17T08:28:47;20.10;37.80
73322;DHT22;61549;37.044;22.128;2023-02-17T08:31:24;20.10;37.90
73322;DHT22;61549;37.044;22.128;2023-02-17T08:33:51;20.20;38.60
73322;DHT22;61549;37.044;22.128;2023-02-17T08:36:17;20.30;38.30
73322;DHT22;61549;37.044;22.128;2023-02-17T08:38:45;20.40;37.50
73322;DHT22;61549;37.044;22.128;2023-02-17T08:41:17;20.50;37.60
73322;DHT22;61549;37.044;22.128;2023-02-17T08:43:44;20.50;37.70
73322;DHT22;61549;37.044;22.128;2023-02-17T08:46:11;20.40;37.70
73322;DHT22;61549;37.044;22.128;2023-02-17T08:48:37;20.40;38.30
73322;DHT22;61549;37.044;22.128;2023-02-17T08:51:23;20.50;38.10
73322;DHT22;61549;37.044;22.128;2023-02-17T08:53:55;20.70;38.20
73322;DHT22;61549;37.044;22.128;2023-02-17T08:56:22;20.80;38.30
73322;DHT22;61549;37.044;22.128;2023-02-17T08:58:49;20.90;37.50
73322;DHT22;61549;37.044;22.128;2023-02-17T09:01:15;20.90;38.00
73322;DHT22;61549;37.044;22.128;2023-02-17T09:03:47;21.00;37.70
73322;DHT22;61549;37.044;22.128;2023-02-17T09:06:13;21.10;37.60
73322;DHT22;61549;37.044;22.128;2023-02-17T09:08:41;21.10;37.40
73322;DHT22;61549;37.044;22.128;2023-02-17T09:11:08;21.10;37.60
73322;DHT22;61549;37.044;22.128;2023-02-17T09:13:35;21.00;37.90
73322;DHT22;61549;37.044;22.128;2023-02-17T09:16:01;21.10;37.80
73322;DHT22;61549;37.044;22.128;2023-02-17T09:18:27;21.10;38.90
73322;DHT22;61549;37.044;22.128;2023-02-17T09:20:53;21.20;38.30
73322;DHT22;61549;37.044;22.128;2023-02-17T09:23:19;21.20;38.00
73322;DHT22;61549;37.044;22.128;2023-02-17T09:25:47;21.30;38.10
73322;DHT22;61549;37.044;22.128;2023-02-17T09:28:13;21.40;38.40
73322;DHT22;61549;37.044;22.128;2023-02-17T09:30:40;21.50;38.50
73322;DHT22;61549;37.044;22.128;2023-02-17T09:33:06;21.50;38.50
73322;DHT22;61549;37.044;22.128;2023-02-17T09:35:32;21.50;37.80
73322;DHT22;61549;37.044;22.128;2023-02-17T09:37:59;21.60;38.30
73322;DHT22;61549;37.044;22.128;2023-02-17T09:40:37;21.70;37.90
73322;DHT22;61549;37.044;22.128;2023-02-17T09:43:04;21.20;38.10
73322;DHT22;61549;37.044;22.128;2023-02-17T09:45:33;21.30;38.10
73322;DHT22;61549;37.044;22.128;2023-02-17T09:48:06;21.10;38.00
73322;DHT22;61549;37.044;22.128;2023-02-17T09:50:42;21.20;39.00
73322;DHT22;61549;37.044;22.128;2023-02-17T09:53:35;21.30;38.60
73322;DHT22;61549;37.044;22.128;2023-02-17T09:56:06;21.50;38.20
73322;DHT22;61549;37.044;22.128;2023-02-17T10:01:08;21.40;38.10
73322;DHT22;61549;37.044;22.128;2023-02-17T10:03:40;21.30;38.90
73322;DHT22;61549;37.044;22.128;2023-02-17T10:09:39;20.90;38.00
73322;DHT22;61549;37.044;22.128;2023-02-17T10:14:18;21.00;38.40
73322;DHT22;61549;37.044;22.128;2023-02-17T10:16:58;21.00;38.00
73322;DHT22;61549;37.044;22.128;2023-02-17T10:20:06;21.20;38.90
73322;DHT22;61549;37.044;22.128;2023-02-17T10:22:34;21.50;38.40
73322;DHT22;61549;37.044;22.128;2023-02-17T10:25:03;21.70;39.50
73322;DHT22;61549;37.044;22.128;2023-02-17T10:28:06;21.80;39.10
73322;DHT22;61549;37.044;22.128;2023-02-17T10:39:15;22.20;38.30
73322;DHT22;61549;37.044;22.128;2023-02-17T10:41:47;22.30;37.90
73322;DHT22;61549;37.044;22.128;2023-02-17T10:44:20;22.30;37.40
73322;DHT22;61549;37.044;22.128;2023-02-17T10:46:49;22.40;37.90
73322;DHT22;61549;37.044;22.128;2023-02-17T10:49:36;22.60;37.60
73322;DHT22;61549;37.044;22.128;2023-02-17T10:52:21;22.70;37.70
73322;DHT22;61549;37.044;22.128;2023-02-17T10:54:56;22.60;37.60
73322;DHT22;61549;37.044;22.128;2023-02-17T10:57:27;22.60;37.90
73322;DHT22;61549;37.044;22.128;2023-02-17T10:59:57;22.50;37.40
73322;DHT22;61549;37.044;22.128;2023-02-17T11:02:41;22.60;38.00
73322;DHT22;61549;37.044;22.128;2023-02-17T11:05:18;22.60;37.70
73322;DHT22;61549;37.044;22.128;2023-02-17T11:07:45;22.70;37.40
73322;DHT22;61549;37.044;22.128;2023-02-17T11:10:39;22.70;37.50
73322;DHT22;61549;37.044;22.128;2023-02-17T11:16:27;23.00;37.30
73322;DHT22;61549;37.044;22.128;2023-02-17T11:18:54;23.20;37.00
73322;DHT22;61549;37.044;22.128;2023-02-17T11:21:21;23.20;36.60
73322;DHT22;61549;37.044;22.128;2023-02-17T11:26:22;23.20;36.60
73322;DHT22;61549;37.044;22.128;2023-02-17T11:28:48;23.30;36.50
73322;DHT22;61549;37.044;22.128;2023-02-17T11:31:26;23.20;36.60
73322;DHT22;61549;37.044;22.128;2023-02-17T11:33:53;23.20;36.60
73322;DHT22;61549;37.044;22.128;2023-02-17T11:36:28;23.20;37.40
73322;DHT22;61549;37.044;22.128;2023-02-17T11:38:56;23.30;37.00
73322;DHT22;61549;37.044;22.128;2023-02-17T11:41:22;23.20;36.70
73322;DHT22;61549;37.044;22.128;2023-02-17T11:43:55;23.10;37.30
73322;DHT22;61549;37.044;22.128;2023-02-17T11:46:45;23.10;37.20
73322;DHT22;61549;37.044;22.128;2023-02-17T11:49:30;23.10;37.00
73322;DHT22;61549;37.044;22.128;2023-02-17T11:57:39;23.20;37.00
73322;DHT22;61549;37.044;22.128;2023-02-17T12:00:18;23.30;36.50
73322;DHT22;61549;37.044;22.128;2023-02-17T12:08:25;23.40;36.70
73322;DHT22;61549;37.044;22.128;2023-02-17T12:21:45;23.40;36.20
73322;DHT22;61549;37.044;22.128;2023-02-17T12:26:59;23.30;36.90
73322;DHT22;61549;37.044;22.128;2023-02-17T12:29:37;23.10;36.80
73322;DHT22;61549;37.044;22.128;2023-02-17T12:34:43;23.00;36.70
73322;DHT22;61549;37.044;22.128;2023-02-17T12:37:23;23.00;36.30
73322;DHT22;61549;37.044;22.128;2023-02-17T12:39:55;23.10;36.70
73322;DHT22;61549;37.044;22.128;2023-02-17T12:42:44;23.10;36.90
73322;DHT22;61549;37.044;22.128;2023-02-17T12:47:57;23.10;37.20
73322;DHT22;61549;37.044;22.128;2023-02-17T12:53:48;23.20;37.30
73322;DHT22;61549;37.044;22.128;2023-02-17T12:58:51;23.40;37.00
73322;DHT22;61549;37.044;22.128;2023-02-17T13:01:19;23.40;37.20
73322;DHT22;61549;37.044;22.128;2023-02-17T13:03:46;23.40;36.90
73322;DHT22;61549;37.044;22.128;2023-02-17T13:06:32;23.20;36.40
73322;DHT22;61549;37.044;22.128;2023-02-17T13:09:19;23.10;36.80
73322;DHT22;61549;37.044;22.128;2023-02-17T13:11:48;23.10;37.20
73322;DHT22;61549;37.044;22.128;2023-02-17T13:14:44;23.10;37.30
73322;DHT22;61549;37.044;22.128;2023-02-17T13:22:29;23.10;37.60
73322;DHT22;61549;37.044;22.128;2023-02-17T13:24:55;23.10;37.90
73322;DHT22;61549;37.044;22.128;2023-02-17T13:33:00;23.20;37.90
73322;DHT22;61549;37.044;22.128;2023-02-17T13:35:34;23.20;37.70
73322;DHT22;61549;37.044;22.128;2023-02-17T13:38:01;23.20;37.70
73322;DHT22;61549;37.044;22.128;2023-02-17T13:43:08;23.10;37.90
73322;DHT22;61549;37.044;22.128;2023-02-17T13:46:09;23.00;37.60
73322;DHT22;61549;37.044;22.128;2023-02-17T13:48:33;23.10;37.90
73322;DHT22;61549;37.044;22.128;2023-02-17T13:51:01;22.80;37.70
73322;DHT22;61549;37.044;22.128;2023-02-17T13:53:29;22.70;37.80
73322;DHT22;61549;37.044;22.128;2023-02-17T13:56:42;22.80;38.40
73322;DHT22;61549;37.044;22.128;2023-02-17T13:58:43;22.80;38.20
73322;DHT22;61549;37.044;22.128;2023-02-17T14:01:15;22.80;38.10
73322;DHT22;61549;37.044;22.128;2023-02-17T14:03:49;22.80;38.10
73322;DHT22;61549;37.044;22.128;2023-02-17T14:06:37;22.80;38.00
73322;DHT22;61549;37.044;22.128;2023-02-17T14:09:27;22.60;38.10
73322;DHT22;61549;37.044;22.128;2023-02-17T14:11:59;22.50;38.00
73322;DHT22;61549;37.044;22.128;2023-02-17T14:14:32;22.50;38.60
73322;DHT22;61549;37.044;22.128;2023-02-17T14:17:28;22.30;38.30
73322;DHT22;61549;37.044;22.128;2023-02-17T14:19:52;22.10;38.70
73322;DHT22;61549;37.044;22.128;2023-02-17T14:22:30;21.90;39.00
73322;DHT22;61549;37.044;22.128;2023-02-17T14:25:05;21.80;39.10
73322;DHT22;61549;37.044;22.128;2023-02-17T14:27:41;21.60;39.40
73322;DHT22;61549;37.044;22.128;2023-02-17T14:30:13;21.50;39.50
73322;DHT22;61549;37.044;22.128;2023-02-17T14:32:39;21.60;39.70
73322;DHT22;61549;37.044;22.128;2023-02-17T14:37:37;21.60;39.70
73322;DHT22;61549;37.044;22.128;2023-02-17T14:40:13;21.60;39.70
73322;DHT22;61549;37.044;22.128;2023-02-17T14:42:39;21.50;39.80
73322;DHT22;61549;37.044;22.128;2023-02-17T14:45:05;21.50;39.90
73322;DHT22;61549;37.044;22.128;2023-02-17T14:47:31;21.40;40.00
73322;DHT22;61549;37.044;22.128;2023-02-17T14:49:57;21.40;40.20
73322;DHT22;61549;37.044;22.128;2023-02-17T14:52:23;21.50;40.60
73322;DHT22;61549;37.044;22.128;2023-02-17T14:54:50;21.50;40.60
73322;DHT22;61549;37.044;22.128;2023-02-17T14:57:21;21.50;40.30
73322;DHT22;61549;37.044;22.128;2023-02-17T14:59:48;21.50;40.60
73322;DHT22;61549;37.044;22.128;2023-02-17T15:02:18;21.30;40.80
73322;DHT22;61549;37.044;22.128;2023-02-17T15:04:44;21.30;41.00
73322;DHT22;61549;37.044;22.128;2023-02-17T15:07:12;21.20;41.00
73322;DHT22;61549;37.044;22.128;2023-02-17T15:09:39;21.20;40.60
73322;DHT22;61549;37.044;22.128;2023-02-17T15:12:14;21.10;40.90
73322;DHT22;61549;37.044;22.128;2023-02-17T15:14:40;21.10;41.10
73322;DHT22;61549;37.044;22.128;2023-02-17T15:17:06;21.00;41.10
73322;DHT22;61549;37.044;22.128;2023-02-17T15:19:32;21.00;41.00
73322;DHT22;61549;37.044;22.128;2023-02-17T15:21:58;20.90;41.40
73322;DHT22;61549;37.044;22.128;2023-02-17T15:24:26;20.80;41.50
73322;DHT22;61549;37.044;22.128;2023-02-17T15:26:54;20.70;41.60
73322;DHT22;61549;37.044;22.128;2023-02-17T15:29:21;20.60;41.90
73322;DHT22;61549;37.044;22.128;2023-02-17T15:31:48;20.60;41.90
73322;DHT22;61549;37.044;22.128;2023-02-17T15:34:16;20.50;42.10
73322;DHT22;61549;37.044;22.128;2023-02-17T15:36:43;20.40;42.20
73322;DHT22;61549;37.044;22.128;2023-02-17T15:39:13;20.20;42.70
73322;DHT22;61549;37.044;22.128;2023-02-17T15:41:40;20.10;42.80
73322;DHT22;61549;37.044;22.128;2023-02-17T15:46:39;19.90;43.30
73322;DHT22;61549;37.044;22.128;2023-02-17T15:49:09;19.80;43.40
73322;DHT22;61549;37.044;22.128;2023-02-17T15:51:35;19.70;43.40
73322;DHT22;61549;37.044;22.128;2023-02-17T15:54:01;19.70;43.50
73322;DHT22;61549;37.044;22.128;2023-02-17T15:56:31;19.60;43.90
73322;DHT22;61549;37.044;22.128;2023-02-17T15:59:07;19.50;44.00
73322;DHT22;61549;37.044;22.128;2023-02-17T16:01:34;19.50;44.00
73322;DHT22;61549;37.044;22.128;2023-02-17T16:04:00;19.40;44.00
73322;DHT22;61549;37.044;22.128;2023-02-17T16:06:27;19.30;44.30
73322;DHT22;61549;37.044;22.128;2023-02-17T16:08:54;19.20;44.20
73322;DHT22;61549;37.044;22.128;2023-02-17T16:11:23;19.10;44.30
73322;DHT22;61549;37.044;22.128;2023-02-17T16:13:50;19.00;44.30
73322;DHT22;61549;37.044;22.128;2023-02-17T16:16:19;18.80;44.60
73322;DHT22;61549;37.044;22.128;2023-02-17T16:18:46;18.80;44.70
73322;DHT22;61549;37.044;22.128;2023-02-17T16:21:12;18.80;44.70
73322;DHT22;61549;37.044;22.128;2023-02-17T16:23:39;18.90;44.80
73322;DHT22;61549;37.044;22.128;2023-02-17T16:26:14;18.90;44.40
73322;DHT22;61549;37.044;22.128;2023-02-17T16:28:43;18.80;44.40
73322;DHT22;61549;37.044;22.128;2023-02-17T16:31:10;18.80;44.70
73322;DHT22;61549;37.044;22.128;2023-02-17T16:33:36;18.80;44.70
73322;DHT22;61549;37.044;22.128;2023-02-17T16:36:02;18.80;44.50
73322;DHT22;61549;37.044;22.128;2023-02-17T16:38:28;18.80;44.60
73322;DHT22;61549;37.044;22.128;2023-02-17T16:40:54;18.80;44.60
73322;DHT22;61549;37.044;22.128;2023-02-17T16:43:23;18.80;44.60
73322;DHT22;61549;37.044;22.128;2023-02-17T16:46:02;18.80;44.80
73322;DHT22;61549;37.044;22.128;2023-02-17T16:48:31;18.90;44.70
73322;DHT22;61549;37.044;22.128;2023-02-17T16:50:57;18.80;44.60
73322;DHT22;61549;37.044;22.128;2023-02-17T16:53:23;18.80;44.60
73322;DHT22;61549;37.044;22.128;2023-02-17T16:55:50;18.80;45.30
73322;DHT22;61549;37.044;22.128;2023-02-17T16:58:19;18.70;44.80
73322;DHT22;61549;37.044;22.128;2023-02-17T17:00:46;18.70;44.90
73322;DHT22;61549;37.044;22.128;2023-02-17T17:03:13;18.60;44.90
73322;DHT22;61549;37.044;22.128;2023-02-17T17:05:39;18.70;44.90
73322;DHT22;61549;37.044;22.128;2023-02-17T17:08:13;18.60;44.90
73322;DHT22;61549;37.044;22.128;2023-02-17T17:10:44;18.60;45.00
73322;DHT22;61549;37.044;22.128;2023-02-17T17:13:14;18.40;45.10
73322;DHT22;61549;37.044;22.128;2023-02-17T17:15:44;18.40;45.10